메인 페이지
METAR-TAF:

METAR-TAF

공항 :

Graham Municipal Airport

Graham, 텍사스, 미국

위도: 33-06-36N, 경도: 098-33-19W, 고도: 342m

현재 날씨관측

예보는 48분 전, 12:50시(UTC)에 발표되었습니다.
북북서12kt, 순간 최대 풍속 20kt
온도 16°C
습도 94%
기압 1021 hPa
시정: 16.1km
고도 500ft 상공 구름 보통
고도 800ft 상공 구름 많음
고도 1400ft 상공 구름 많음
약한비

METAR: KRPH 261250Z AUTO 34012G20KT 10SM -RA SCT005 BKN008 BKN014 16/15 A3014 RMK AO2 P0002 T01550149

시각: 08:38 (13:38 UTC)


TAF: 누락

4,000개 이상의 공항 관측 자료 및 예보 (METAR 및 TAF 보고).

지도상에서 검색 가능한 기상관측소가 노란 점과 빨간 점으로 표시되어 있습니다.

기상관측소 명을 보려면 표시 위로 마우스를 이동하세요.

날씨 관측과 예보를 보려면 클릭하세요.

지도 변경 : 확대하려면 엑스 표시가 있는 녹색 버튼, 축소하려면 빼기 표시가 있는 녹색 버튼, 다음 페이지의 지도를 보려면 녹색 화살표를 클릭하세요.


METAR-TAF: